Time;durP1;ratioP1;P1;durP2;ratioP2;P2;SDS_P1;SDS_P2;PMS_P1;PMS_P2;Temp;Humidity;BMP_temperature;BMP_pressure;BME280_temperature;BME280_humidity;BME280_pressure;Samples;Min_cycle;Max_cycle;Signal;HPM_P1;HPM_P2
2022/08/28 00:01:54;;;;;;;2.40;2.08;;;29.10;73.20;;;;;;5029115;28;20149;-56
2022/08/28 00:04:20;;;;;;;2.70;2.25;;;29.00;73.20;;;;;;5028619;28;20103;-55
2022/08/28 00:06:46;;;;;;;3.42;2.15;;;29.00;73.20;;;;;;5031054;28;20129;-57
2022/08/28 00:09:12;;;;;;;3.13;1.95;;;29.10;73.20;;;;;;5033049;28;20522;-57
2022/08/28 00:11:39;;;;;;;2.15;1.95;;;29.10;73.20;;;;;;5044507;28;20123;-57
2022/08/28 00:14:08;;;;;;;2.22;2.03;;;29.10;73.20;;;;;;5053341;28;20453;-57
2022/08/28 00:16:34;;;;;;;2.30;2.10;;;29.10;73.20;;;;;;5020104;28;20432;-55
2022/08/28 00:19:01;;;;;;;2.97;1.92;;;29.10;73.20;;;;;;5036675;28;20029;-57
2022/08/28 00:21:28;;;;;;;2.35;2.10;;;29.10;73.40;;;;;;5052990;28;20074;-56
2022/08/28 00:23:55;;;;;;;2.40;2.10;;;29.10;73.40;;;;;;5036457;28;20025;-57
2022/08/28 00:28:50;;;;;;;5.00;2.53;;;29.10;73.50;;;;;;5021157;28;20040;-56
2022/08/28 00:31:16;;;;;;;2.78;2.08;;;29.10;73.40;;;;;;5020100;28;20124;-57
2022/08/28 00:33:42;;;;;;;2.65;2.25;;;29.10;73.40;;;;;;5019894;28;20033;-57
2022/08/28 00:36:08;;;;;;;2.88;2.15;;;29.10;73.40;;;;;;5019674;28;20386;-57
2022/08/28 00:38:34;;;;;;;4.50;2.42;;;29.10;73.30;;;;;;5019625;28;20074;-56
2022/08/28 00:41:02;;;;;;;2.60;2.05;;;29.10;73.30;;;;;;5036153;28;20460;-57
2022/08/28 00:43:34;;;;;;;2.38;1.83;;;29.10;73.30;;;;;;5036378;28;20027;-56
2022/08/28 00:46:03;;;;;;;2.15;1.90;;;29.10;73.20;;;;;;5020120;28;20021;-57
2022/08/28 00:48:29;;;;;;;2.47;2.28;;;29.10;73.20;;;;;;5019830;28;20115;-56
2022/08/28 00:53:26;;;;;;;4.22;2.40;;;29.10;73.10;;;;;;5052669;28;20025;-57
2022/08/28 00:55:52;;;;;;;3.40;2.22;;;29.10;73.10;;;;;;5052678;28;20021;-57
2022/08/28 00:58:19;;;;;;;2.50;2.17;;;29.00;73.10;;;;;;5019290;28;20032;-57
2022/08/28 01:00:45;;;;;;;2.33;2.00;;;29.10;73.10;;;;;;5036109;28;20024;-56
2022/08/28 01:03:10;;;;;;;2.50;2.10;;;29.00;73.10;;;;;;5019008;28;20462;-56
2022/08/28 01:05:38;;;;;;;3.40;2.05;;;29.00;73.10;;;;;;5036042;28;20056;-57
2022/08/28 01:08:04;;;;;;;2.95;2.17;;;29.00;73.10;;;;;;5052399;28;20075;-56
2022/08/28 01:10:33;;;;;;;2.80;2.15;;;29.00;73.00;;;;;;5051894;28;20112;-56
2022/08/28 01:12:59;;;;;;;2.63;2.30;;;29.00;73.10;;;;;;5019557;28;20032;-58
2022/08/28 01:15:30;;;;;;;2.95;2.20;;;29.00;73.10;;;;;;5052173;28;20090;-57
2022/08/28 01:18:01;;;;;;;2.53;2.08;;;29.00;73.00;;;;;;5019378;28;20056;-56
2022/08/28 01:20:31;;;;;;;2.83;2.20;;;29.00;73.10;;;;;;5035920;28;20025;-56
2022/08/28 01:23:00;;;;;;;2.35;2.03;;;29.00;73.20;;;;;;5035216;28;20082;-56
2022/08/28 01:25:30;;;;;;;2.50;1.90;;;29.00;73.10;;;;;;5019392;28;20029;-56
2022/08/28 01:27:56;;;;;;;2.15;1.90;;;29.00;73.00;;;;;;5035468;28;20482;-56
2022/08/28 01:30:23;;;;;;;2.20;2.00;;;29.00;73.10;;;;;;5051685;28;20071;-57
2022/08/28 01:32:52;;;;;;;2.50;1.85;;;29.00;73.10;;;;;;5035408;28;20017;-56
2022/08/28 01:35:24;;;;;;;2.30;1.98;;;29.00;73.10;;;;;;5018836;28;20041;-56
2022/08/28 01:37:51;;;;;;;2.55;2.10;;;29.00;73.10;;;;;;5035987;28;20056;-56
2022/08/28 01:40:26;;;;;;;2.38;2.13;;;29.00;73.00;;;;;;5018708;28;20048;-57
2022/08/28 01:42:52;;;;;;;2.95;1.90;;;29.00;73.00;;;;;;5019427;28;20036;-57
2022/08/28 01:45:19;;;;;;;2.10;1.83;;;29.00;73.00;;;;;;5018821;28;20040;-56
2022/08/28 01:47:46;;;;;;;2.20;1.90;;;29.00;73.00;;;;;;5034957;28;20017;-56
2022/08/28 01:50:14;;;;;;;2.10;1.70;;;29.00;73.00;;;;;;5051346;28;20456;-56
2022/08/28 01:52:41;;;;;;;2.00;1.70;;;29.00;73.00;;;;;;5018678;28;20032;-57
2022/08/28 01:55:07;;;;;;;2.40;1.67;;;29.00;73.00;;;;;;5034787;28;20128;-56
2022/08/28 01:57:35;;;;;;;2.13;1.88;;;29.00;73.00;;;;;;5034984;28;20032;-56
2022/08/28 02:00:01;;;;;;;2.75;2.40;;;29.00;73.00;;;;;;5034718;28;20021;-57
2022/08/28 02:02:27;;;;;;;2.00;1.77;;;29.00;73.00;;;;;;5034487;28;20029;-56
2022/08/28 02:04:53;;;;;;;1.67;1.50;;;29.00;73.00;;;;;;5034275;28;20140;-56
2022/08/28 02:07:19;;;;;;;2.35;2.15;;;29.00;73.00;;;;;;5018044;28;20111;-58
2022/08/28 02:09:45;;;;;;;2.25;2.05;;;29.00;73.00;;;;;;5034632;28;20029;-56
2022/08/28 02:12:11;;;;;;;2.17;1.90;;;29.00;73.00;;;;;;5017729;28;20478;-56
2022/08/28 02:14:37;;;;;;;2.50;1.92;;;29.00;73.00;;;;;;5018032;28;20033;-56
2022/08/28 02:17:03;;;;;;;3.03;2.13;;;29.00;73.00;;;;;;5034527;28;20077;-57
2022/08/28 02:19:31;;;;;;;2.55;2.10;;;29.00;73.00;;;;;;5034227;28;20021;-56
2022/08/28 02:21:57;;;;;;;2.22;1.77;;;29.00;73.00;;;;;;5018244;28;20397;-56
2022/08/28 02:24:23;;;;;;;1.70;1.60;;;29.00;73.00;;;;;;5033880;28;20029;-57
2022/08/28 02:26:48;;;;;;;1.98;1.70;;;29.00;73.00;;;;;;5050933;28;20029;-57
2022/08/28 02:29:14;;;;;;;2.22;1.90;;;29.00;73.00;;;;;;5033846;28;20032;-57
2022/08/28 02:31:40;;;;;;;2.20;1.80;;;28.90;73.00;;;;;;5017666;28;20051;-58
2022/08/28 02:34:06;;;;;;;3.20;1.70;;;28.90;73.10;;;;;;5034183;28;20048;-57
2022/08/28 02:36:32;;;;;;;1.92;1.70;;;28.90;73.10;;;;;;5033928;28;20032;-57
2022/08/28 02:38:59;;;;;;;2.05;1.80;;;28.90;73.10;;;;;;5017855;28;20032;-57
2022/08/28 02:41:25;;;;;;;2.30;2.00;;;28.90;73.10;;;;;;5017677;28;20382;-57
2022/08/28 02:43:51;;;;;;;2.38;2.17;;;28.90;73.10;;;;;;5050518;28;20021;-57
2022/08/28 02:46:17;;;;;;;2.42;1.85;;;28.90;73.10;;;;;;5017076;28;20024;-57
2022/08/28 02:48:43;;;;;;;2.00;1.80;;;28.90;73.10;;;;;;5033912;28;20029;-57
2022/08/28 02:51:12;;;;;;;1.98;1.73;;;28.90;73.10;;;;;;5017959;28;20028;-57
2022/08/28 02:53:38;;;;;;;2.25;1.63;;;28.90;73.10;;;;;;5034085;28;20128;-57
2022/08/28 02:56:05;;;;;;;2.38;1.95;;;28.90;73.10;;;;;;5050442;28;20025;-57
2022/08/28 02:58:34;;;;;;;2.30;1.80;;;28.90;73.10;;;;;;5033620;28;20021;-57
2022/08/28 03:01:02;;;;;;;2.40;1.80;;;28.90;73.20;;;;;;5033900;28;20437;-58
2022/08/28 03:03:30;;;;;;;2.20;1.95;;;28.90;73.20;;;;;;5033394;28;20486;-57
2022/08/28 03:05:59;;;;;;;2.83;1.77;;;28.90;73.20;;;;;;5050398;28;20360;-57
2022/08/28 03:08:26;;;;;;;1.73;1.55;;;28.90;73.20;;;;;;5033230;28;20024;-57
2022/08/28 03:10:52;;;;;;;2.15;1.83;;;28.90;73.20;;;;;;5017438;28;20029;-57
2022/08/28 03:13:18;;;;;;;1.85;1.65;;;28.90;73.20;;;;;;5017121;28;20391;-57
2022/08/28 03:15:45;;;;;;;1.95;1.70;;;28.90;73.20;;;;;;5033659;28;20021;-57
2022/08/28 03:18:13;;;;;;;2.92;1.70;;;28.90;73.20;;;;;;5017120;28;20040;-56
2022/08/28 03:20:41;;;;;;;2.00;1.73;;;28.90;73.20;;;;;;5017518;28;20025;-58
2022/08/28 03:25:36;;;;;;;1.58;1.48;;;28.90;73.20;;;;;;5034322;28;20492;-57
2022/08/28 03:28:02;;;;;;;1.90;1.70;;;28.90;73.20;;;;;;5016803;28;20116;-57
2022/08/28 03:30:28;;;;;;;2.10;1.83;;;28.90;73.20;;;;;;5017065;28;20396;-57
2022/08/28 03:32:54;;;;;;;2.20;1.90;;;28.90;73.20;;;;;;5017591;28;20035;-57
2022/08/28 03:35:20;;;;;;;2.78;1.90;;;28.90;73.20;;;;;;5016840;28;20486;-58
2022/08/28 03:37:46;;;;;;;2.17;1.95;;;28.90;73.20;;;;;;5049996;28;20021;-57
2022/08/28 03:40:13;;;;;;;1.70;1.40;;;28.90;73.20;;;;;;5050101;28;20029;-57
2022/08/28 03:42:39;;;;;;;1.63;1.52;;;28.90;73.20;;;;;;5037444;28;20036;-58
2022/08/28 03:45:09;;;;;;;2.83;1.70;;;28.90;73.30;;;;;;5053981;28;20095;-57
2022/08/28 03:47:37;;;;;;;2.55;1.50;;;28.90;73.30;;;;;;5037133;28;20029;-57
2022/08/28 03:50:05;;;;;;;2.35;1.75;;;28.90;73.30;;;;;;5053804;28;20401;-57
2022/08/28 03:52:31;;;;;;;1.60;1.50;;;28.90;73.30;;;;;;5020805;28;20079;-57
2022/08/28 03:54:57;;;;;;;2.20;1.63;;;28.90;73.30;;;;;;5053507;28;20143;-57
2022/08/28 03:57:24;;;;;;;2.58;1.75;;;28.90;73.30;;;;;;5037020;28;20120;-57
2022/08/28 03:59:52;;;;;;;2.25;1.88;;;28.80;73.30;;;;;;5020775;28;20051;-57
2022/08/28 04:02:19;;;;;;;1.60;1.50;;;28.90;73.30;;;;;;5020635;28;20025;-57
2022/08/28 04:04:47;;;;;;;1.92;1.50;;;28.90;73.30;;;;;;5036495;28;20107;-57
2022/08/28 04:07:13;;;;;;;2.10;1.77;;;28.90;73.30;;;;;;5037218;28;20021;-57
2022/08/28 04:09:39;;;;;;;2.00;1.60;;;28.90;73.30;;;;;;5020378;28;20031;-58
2022/08/28 04:12:07;;;;;;;1.90;1.63;;;28.90;73.30;;;;;;5036909;28;20390;-57
2022/08/28 04:14:33;;;;;;;2.67;1.60;;;28.90;73.30;;;;;;5020673;28;20045;-57
2022/08/28 04:16:59;;;;;;;1.75;1.40;;;28.90;73.30;;;;;;5020329;28;20482;-59
2022/08/28 04:19:25;;;;;;;2.55;2.20;;;28.90;73.30;;;;;;5036573;28;20028;-57
2022/08/28 04:21:51;;;;;;;2.35;1.60;;;28.90;73.30;;;;;;5020314;28;20524;-57
2022/08/28 04:24:17;;;;;;;2.05;1.83;;;28.80;73.30;;;;;;5036639;28;20388;-57
2022/08/28 04:26:43;;;;;;;1.90;1.65;;;28.80;73.30;;;;;;5036600;28;20040;-56
2022/08/28 04:29:09;;;;;;;1.90;1.70;;;28.80;73.30;;;;;;5036480;28;20032;-57
2022/08/28 04:31:35;;;;;;;2.03;1.70;;;28.80;73.30;;;;;;5036411;28;20058;-57
2022/08/28 04:34:05;;;;;;;2.53;1.85;;;28.80;73.30;;;;;;5052860;28;20044;-57
2022/08/28 04:36:32;;;;;;;3.53;1.73;;;28.80;73.30;;;;;;5020027;28;20017;-57
2022/08/28 04:38:59;;;;;;;1.98;1.70;;;28.90;73.30;;;;;;5036615;28;20029;-57
2022/08/28 04:41:27;;;;;;;2.53;2.00;;;28.90;73.30;;;;;;5036501;28;20021;-57
2022/08/28 04:43:56;;;;;;;2.03;1.55;;;28.80;73.30;;;;;;5020099;28;20036;-57
2022/08/28 04:46:23;;;;;;;2.70;1.75;;;28.90;73.30;;;;;;5035929;28;20029;-57
2022/08/28 04:48:49;;;;;;;2.70;1.83;;;28.80;73.30;;;;;;5036155;28;20025;-57
2022/08/28 04:51:15;;;;;;;2.47;1.90;;;28.80;73.30;;;;;;5052391;28;20123;-57
2022/08/28 04:53:42;;;;;;;2.25;1.70;;;28.80;73.30;;;;;;5035300;28;20394;-57
2022/08/28 04:56:11;;;;;;;2.47;1.73;;;28.80;73.30;;;;;;5052461;28;20494;-57
2022/08/28 04:58:38;;;;;;;2.53;1.98;;;28.80;73.30;;;;;;5019868;28;20035;-57
2022/08/28 05:03:56;;;;;;;1.90;1.70;;;28.80;73.30;;;;;;5204953;22;20057;-59
2022/08/28 05:06:25;;;;;;;3.35;1.77;;;28.80;73.30;;;;;;4985152;28;20029;-58
2022/08/28 05:08:52;;;;;;;2.10;1.80;;;28.80;73.30;;;;;;5016784;28;20029;-58
2022/08/28 05:11:21;;;;;;;1.95;1.70;;;28.80;73.30;;;;;;5017133;28;20018;-58
2022/08/28 05:13:47;;;;;;;1.90;1.70;;;28.80;73.30;;;;;;5016972;28;20045;-58
2022/08/28 05:16:15;;;;;;;1.85;1.67;;;28.80;73.30;;;;;;5000356;28;20114;-58
2022/08/28 05:18:41;;;;;;;1.95;1.63;;;28.80;73.30;;;;;;5000716;28;20026;-58
2022/08/28 05:21:12;;;;;;;1.50;1.40;;;28.80;73.30;;;;;;5016860;28;20025;-58
2022/08/28 05:23:39;;;;;;;2.05;1.85;;;28.80;73.30;;;;;;5016332;28;20116;-58
2022/08/28 05:26:05;;;;;;;2.03;1.83;;;28.80;73.30;;;;;;4984202;28;20026;-57
2022/08/28 05:28:31;;;;;;;2.33;1.88;;;28.80;73.30;;;;;;5016578;28;20112;-58
2022/08/28 05:31:08;;;;;;;1.50;1.40;;;28.80;73.30;;;;;;4984269;28;20116;-58
2022/08/28 05:33:34;;;;;;;2.60;1.80;;;28.80;73.30;;;;;;5000148;28;20026;-57
2022/08/28 05:36:05;;;;;;;1.90;1.40;;;28.80;73.30;;;;;;4983599;28;20032;-58
2022/08/28 05:38:31;;;;;;;2.17;1.42;;;28.80;73.30;;;;;;5016351;28;20500;-58
2022/08/28 05:40:57;;;;;;;2.30;1.90;;;28.80;73.30;;;;;;5000388;28;20026;-58
2022/08/28 05:43:24;;;;;;;2.75;1.58;;;28.80;73.30;;;;;;4983964;28;20026;-58
2022/08/28 05:45:57;;;;;;;2.20;1.40;;;28.80;73.30;;;;;;5016034;28;20037;-59
2022/08/28 05:48:23;;;;;;;2.20;1.60;;;28.80;73.30;;;;;;4984458;28;20113;-58
2022/08/28 05:50:49;;;;;;;1.60;1.40;;;28.80;73.30;;;;;;4983892;28;20033;-58
2022/08/28 05:53:16;;;;;;;1.77;1.40;;;28.80;73.30;;;;;;4983630;28;20030;-58
2022/08/28 05:55:44;;;;;;;2.05;1.58;;;28.80;73.30;;;;;;5016186;28;20040;-58
2022/08/28 06:00:39;;;;;;;1.63;1.50;;;28.80;73.30;;;;;;4999171;28;20033;-58
2022/08/28 06:03:05;;;;;;;2.13;1.63;;;28.80;73.30;;;;;;4987554;28;20049;-58
2022/08/28 06:05:31;;;;;;;1.90;1.70;;;28.80;73.30;;;;;;4998513;28;20409;-58
2022/08/28 06:07:57;;;;;;;1.80;1.50;;;28.80;73.30;;;;;;4998213;28;20076;-58
2022/08/28 06:10:23;;;;;;;2.45;1.73;;;28.80;73.30;;;;;;5015294;28;20021;-58
2022/08/28 06:12:49;;;;;;;1.90;1.70;;;28.80;73.30;;;;;;4999473;28;20470;-57
2022/08/28 06:15:15;;;;;;;1.90;1.60;;;28.80;73.30;;;;;;5015583;28;20118;-58
2022/08/28 06:17:41;;;;;;;2.58;1.45;;;28.80;73.30;;;;;;5015802;28;20461;-58
2022/08/28 06:20:09;;;;;;;1.90;1.48;;;28.80;73.30;;;;;;4999369;28;20418;-58
2022/08/28 06:22:35;;;;;;;2.03;1.83;;;28.80;73.30;;;;;;4999793;28;20026;-58
2022/08/28 06:25:01;;;;;;;1.67;1.50;;;28.80;73.30;;;;;;4999203;28;20029;-57
2022/08/28 06:27:27;;;;;;;1.70;1.50;;;28.80;73.30;;;;;;5015588;28;20024;-58
2022/08/28 06:29:53;;;;;;;1.75;1.50;;;28.80;73.30;;;;;;5015408;28;20532;-59
2022/08/28 06:32:19;;;;;;;1.92;1.42;;;28.80;73.30;;;;;;4999277;28;20120;-58
2022/08/28 06:34:45;;;;;;;1.55;1.30;;;28.80;73.30;;;;;;4998595;28;20034;-58
2022/08/28 06:37:11;;;;;;;1.95;1.70;;;28.80;73.30;;;;;;5015298;28;20038;-58
2022/08/28 06:39:37;;;;;;;1.70;1.60;;;28.80;73.30;;;;;;5015700;28;20025;-58
2022/08/28 06:42:04;;;;;;;1.90;1.55;;;28.80;73.30;;;;;;4998768;28;20402;-58
2022/08/28 06:44:31;;;;;;;1.98;1.70;;;28.80;73.30;;;;;;4999180;28;20104;-58
2022/08/28 06:46:57;;;;;;;1.75;1.60;;;28.80;73.30;;;;;;4999226;28;20029;-57
2022/08/28 06:49:24;;;;;;;2.15;1.95;;;28.80;73.30;;;;;;5015492;28;20026;-58
2022/08/28 06:51:50;;;;;;;2.22;1.50;;;28.80;73.30;;;;;;5015357;28;20037;-61
2022/08/28 06:54:16;;;;;;;2.00;1.60;;;28.80;73.30;;;;;;5014886;28;20060;-58
2022/08/28 06:56:43;;;;;;;2.75;1.50;;;28.80;73.40;;;;;;5015334;28;20484;-58
2022/08/28 06:59:10;;;;;;;1.92;1.70;;;28.80;73.30;;;;;;5031287;28;20072;-58
2022/08/28 07:01:36;;;;;;;1.80;1.50;;;28.80;73.30;;;;;;5031354;28;20068;-58
2022/08/28 07:04:07;;;;;;;1.70;1.50;;;28.80;73.30;;;;;;4998073;28;20049;-58
2022/08/28 07:06:37;;;;;;;1.70;1.60;;;28.80;73.30;;;;;;5015253;28;20021;-57
2022/08/28 07:09:06;;;;;;;1.92;1.77;;;28.80;73.30;;;;;;5015317;28;20526;-57
2022/08/28 07:11:33;;;;;;;1.52;1.42;;;28.80;73.30;;;;;;5031587;28;20026;-58
2022/08/28 07:14:01;;;;;;;2.58;1.70;;;28.80;73.30;;;;;;5030860;28;20037;-58
2022/08/28 07:16:31;;;;;;;1.85;1.52;;;28.80;73.30;;;;;;5031037;28;20056;-58
2022/08/28 07:18:58;;;;;;;1.85;1.45;;;28.80;73.30;;;;;;5015017;28;20041;-58
2022/08/28 07:21:24;;;;;;;1.80;1.60;;;28.80;73.40;;;;;;5014436;28;20068;-58
2022/08/28 07:23:50;;;;;;;1.30;1.13;;;28.80;73.40;;;;;;5030470;28;20482;-58
2022/08/28 07:26:22;;;;;;;1.70;1.45;;;28.80;73.40;;;;;;4998458;28;20028;-58
2022/08/28 07:28:48;;;;;;;1.70;1.40;;;28.80;73.50;;;;;;5014656;28;20036;-58
2022/08/28 07:31:18;;;;;;;2.33;1.40;;;28.80;73.50;;;;;;4998641;28;20037;-58
2022/08/28 07:33:45;;;;;;;1.73;1.50;;;28.80;73.50;;;;;;5014537;28;20029;-58
2022/08/28 07:36:16;;;;;;;2.05;1.60;;;28.80;73.50;;;;;;5014723;28;20017;-58
2022/08/28 07:38:42;;;;;;;1.95;1.55;;;28.80;73.50;;;;;;5014866;28;20026;-58
2022/08/28 07:41:13;;;;;;;2.53;1.90;;;28.80;73.60;;;;;;5029992;28;20021;-58
2022/08/28 07:46:10;;;;;;;1.73;1.45;;;28.80;73.60;;;;;;4999238;28;20037;-58
2022/08/28 07:48:38;;;;;;;1.70;1.50;;;28.80;73.60;;;;;;5014716;28;20049;-58
2022/08/28 07:51:06;;;;;;;2.88;1.77;;;28.80;73.60;;;;;;5014119;28;20029;-58
2022/08/28 07:53:32;;;;;;;2.17;1.50;;;28.80;73.60;;;;;;4998165;28;20060;-58
2022/08/28 07:55:58;;;;;;;1.65;1.55;;;28.80;73.60;;;;;;5030953;28;20033;-58
2022/08/28 07:58:25;;;;;;;1.70;1.40;;;28.80;73.60;;;;;;5014795;28;20030;-58
2022/08/28 08:00:52;;;;;;;2.10;1.30;;;28.80;73.60;;;;;;4996804;28;20026;-58
2022/08/28 08:03:19;;;;;;;1.65;1.38;;;28.80;73.60;;;;;;5030556;28;20514;-57
2022/08/28 08:05:51;;;;;;;1.88;1.67;;;28.80;73.60;;;;;;5013828;28;20044;-58
2022/08/28 08:08:17;;;;;;;2.67;1.70;;;28.80;73.60;;;;;;4998584;28;20033;-58
2022/08/28 08:10:43;;;;;;;2.38;1.40;;;28.80;73.60;;;;;;5013247;28;20028;-58
2022/08/28 08:13:09;;;;;;;2.55;1.85;;;28.80;73.60;;;;;;4997262;28;20029;-58
2022/08/28 08:15:35;;;;;;;2.75;1.73;;;28.80;73.60;;;;;;4996987;28;20390;-58
2022/08/28 08:18:01;;;;;;;2.28;1.70;;;28.80;73.60;;;;;;5013325;28;20022;-58
2022/08/28 08:20:27;;;;;;;1.90;1.40;;;28.80;73.60;;;;;;4996952;28;20060;-58
2022/08/28 08:22:53;;;;;;;2.97;1.50;;;28.80;73.60;;;;;;5013061;28;20029;-59
2022/08/28 08:25:19;;;;;;;1.30;1.08;;;28.80;73.60;;;;;;4997107;28;20075;-58
2022/08/28 08:27:46;;;;;;;1.75;1.50;;;28.80;73.60;;;;;;4998188;28;20482;-58
2022/08/28 08:30:12;;;;;;;1.52;1.10;;;28.80;73.60;;;;;;5000353;28;20026;-58
2022/08/28 08:32:38;;;;;;;1.70;1.50;;;28.80;73.50;;;;;;5016821;28;20528;-58
2022/08/28 08:35:05;;;;;;;1.23;1.13;;;28.80;73.50;;;;;;5000542;28;20037;-59
2022/08/28 08:37:31;;;;;;;2.00;1.70;;;28.80;73.60;;;;;;5016860;28;20533;-58
2022/08/28 08:39:57;;;;;;;1.70;1.60;;;28.80;73.60;;;;;;4999981;28;20140;-58
2022/08/28 08:42:26;;;;;;;1.75;1.35;;;28.80;73.60;;;;;;5000237;28;20022;-58
2022/08/28 08:44:55;;;;;;;2.40;1.30;;;28.80;73.60;;;;;;5032746;28;20030;-60
2022/08/28 08:47:24;;;;;;;3.30;1.70;;;28.80;73.60;;;;;;5033011;28;20079;-58
2022/08/28 08:49:55;;;;;;;1.80;1.55;;;28.80;73.60;;;;;;5000095;28;20482;-58
2022/08/28 08:52:27;;;;;;;2.58;1.63;;;28.80;73.60;;;;;;5016591;28;20021;-57
2022/08/28 08:55:04;;;;;;;1.80;1.15;;;28.80;73.60;;;;;;5000226;28;20482;-58
2022/08/28 08:57:32;;;;;;;1.30;1.20;;;28.80;73.60;;;;;;5000470;28;20076;-58
2022/08/28 08:59:58;;;;;;;1.30;1.17;;;28.80;73.60;;;;;;5032612;28;20112;-58
2022/08/28 09:02:30;;;;;;;2.08;1.67;;;28.80;73.60;;;;;;4999427;28;20081;-58
2022/08/28 09:05:04;;;;;;;2.00;1.73;;;28.80;73.60;;;;;;5016427;28;20025;-58
2022/08/28 09:07:37;;;;;;;1.77;1.38;;;28.80;73.60;;;;;;5032484;28;20030;-58
2022/08/28 09:10:07;;;;;;;2.97;1.65;;;28.80;73.60;;;;;;5016334;28;20025;-58
2022/08/28 09:12:48;;;;;;;2.10;1.65;;;28.80;73.60;;;;;;5032095;28;20490;-59
2022/08/28 09:15:23;;;;;;;1.95;1.20;;;28.80;73.60;;;;;;5032318;28;20110;-58
2022/08/28 09:17:54;;;;;;;1.95;1.75;;;28.80;73.60;;;;;;5000071;28;20025;-58
2022/08/28 09:20:24;;;;;;;1.65;1.27;;;28.80;73.70;;;;;;5015837;28;20049;-59
2022/08/28 09:22:50;;;;;;;2.53;1.27;;;28.80;73.70;;;;;;5015966;28;20025;-58
2022/08/28 09:25:22;;;;;;;2.00;1.48;;;28.80;73.70;;;;;;5032082;28;20422;-58
2022/08/28 09:27:51;;;;;;;3.20;1.40;;;28.80;73.70;;;;;;4999941;28;20030;-58
2022/08/28 09:30:29;;;;;;;1.65;1.55;;;28.80;73.60;;;;;;5016317;28;20442;-58
2022/08/28 09:32:59;;;;;;;1.60;1.40;;;28.80;73.60;;;;;;5015212;28;20022;-58
2022/08/28 09:35:29;;;;;;;1.88;1.52;;;28.80;73.60;;;;;;5032085;28;20128;-57
2022/08/28 09:38:17;;;;;;;1.88;1.45;;;28.80;73.60;;;;;;5031688;28;20394;-57
2022/08/28 09:45:54;;;;;;;1.88;1.58;;;28.80;73.60;;;;;;5016247;28;20039;-58
2022/08/28 09:48:28;;;;;;;1.90;1.50;;;28.80;73.50;;;;;;5015459;28;20079;-58
2022/08/28 09:50:57;;;;;;;2.13;1.92;;;28.80;73.50;;;;;;5031745;28;20455;-58
2022/08/28 09:53:27;;;;;;;1.77;1.60;;;28.80;73.50;;;;;;5015241;28;20025;-58
2022/08/28 09:55:58;;;;;;;2.42;1.92;;;28.80;73.50;;;;;;5031178;28;20091;-58
2022/08/28 09:58:34;;;;;;;2.08;1.80;;;28.80;73.50;;;;;;4999283;28;20017;-58
2022/08/28 10:01:08;;;;;;;2.15;1.60;;;28.80;73.40;;;;;;4999400;28;20484;-58
2022/08/28 10:03:48;;;;;;;2.88;1.88;;;28.80;73.40;;;;;;4999188;28;20535;-58
2022/08/28 10:06:25;;;;;;;2.30;1.98;;;28.80;73.40;;;;;;5031364;28;20032;-58
2022/08/28 10:08:54;;;;;;;3.80;2.00;;;28.80;73.40;;;;;;5014816;28;20445;-59
2022/08/28 10:11:34;;;;;;;8.73;2.35;;;28.80;73.40;;;;;;4998584;28;20068;-60
2022/08/28 10:14:10;;;;;;;6.30;2.55;;;28.80;73.20;;;;;;5014480;28;20510;-60
2022/08/28 10:16:52;;;;;;;7.00;2.75;;;28.80;73.00;;;;;;5014753;28;20470;-59
2022/08/28 10:19:24;;;;;;;5.43;2.58;;;28.70;72.80;;;;;;4996023;28;20025;-59
2022/08/28 10:22:06;;;;;;;6.22;2.75;;;28.70;73.00;;;;;;4970525;28;20021;-58
2022/08/28 10:24:37;;;;;;;3.30;2.13;;;28.70;73.10;;;;;;5007996;28;20026;-60
2022/08/28 10:27:14;;;;;;;8.52;2.88;;;28.70;73.10;;;;;;4975650;28;20033;-59
2022/08/28 10:29:48;;;;;;;3.95;2.17;;;28.70;73.10;;;;;;4976039;28;20022;-60
2022/08/28 10:32:23;;;;;;;3.55;2.28;;;28.70;73.10;;;;;;4978794;28;20061;-60
2022/08/28 10:34:56;;;;;;;4.13;2.22;;;28.70;73.20;;;;;;4979790;28;20372;-59
2022/08/28 10:37:33;;;;;;;3.10;2.10;;;28.70;73.20;;;;;;4980145;28;20383;-60
2022/08/28 10:40:05;;;;;;;2.80;2.50;;;28.70;73.20;;;;;;4996431;28;20026;-60
2022/08/28 10:42:38;;;;;;;3.92;2.38;;;28.70;73.20;;;;;;4995265;28;20033;-60
2022/08/28 10:45:10;;;;;;;2.90;2.35;;;28.70;73.20;;;;;;4979384;28;20033;-60
2022/08/28 10:47:40;;;;;;;2.92;2.22;;;28.70;73.20;;;;;;4994183;28;20366;-60
2022/08/28 10:50:14;;;;;;;2.35;2.03;;;28.70;73.20;;;;;;4994006;28;20073;-60
2022/08/28 10:52:46;;;;;;;2.25;2.00;;;28.80;73.20;;;;;;5011068;28;20053;-60
2022/08/28 10:55:18;;;;;;;3.58;2.35;;;28.70;73.20;;;;;;4978585;28;20041;-61
2022/08/28 10:57:50;;;;;;;4.57;2.40;;;28.80;73.20;;;;;;4994712;28;20030;-60
2022/08/28 11:00:20;;;;;;;4.78;2.42;;;28.80;73.30;;;;;;4978578;28;20066;-60
2022/08/28 11:02:51;;;;;;;2.80;1.95;;;28.80;73.20;;;;;;4993820;28;20049;-60
2022/08/28 11:05:22;;;;;;;3.55;2.30;;;28.80;73.20;;;;;;4994115;28;20383;-60
2022/08/28 11:07:54;;;;;;;3.58;2.00;;;28.70;73.30;;;;;;4993915;28;20022;-61
2022/08/28 11:10:41;;;;;;;3.70;2.47;;;28.80;73.30;;;;;;4994056;28;20033;-61
2022/08/28 11:13:09;;;;;;;4.22;2.05;;;28.80;73.30;;;;;;4983427;28;20022;-60
2022/08/28 11:15:38;;;;;;;3.45;2.30;;;28.80;73.20;;;;;;4977622;28;20387;-60
2022/08/28 11:18:25;;;;;;;3.28;2.10;;;28.80;73.30;;;;;;4977828;28;20109;-60
2022/08/28 11:20:58;;;;;;;3.85;2.00;;;28.80;73.30;;;;;;4980153;28;20467;-60
2022/08/28 11:23:35;;;;;;;1.73;1.52;;;28.80;73.20;;;;;;4978252;28;20029;-60
2022/08/28 11:26:07;;;;;;;2.28;2.08;;;28.80;73.20;;;;;;4994521;28;20026;-60
2022/08/28 11:28:34;;;;;;;2.97;1.95;;;28.80;73.20;;;;;;4994289;28;20037;-60
2022/08/28 11:31:01;;;;;;;5.28;2.22;;;28.80;73.20;;;;;;4977985;28;20026;-60
2022/08/28 11:33:34;;;;;;;3.22;2.10;;;28.80;73.20;;;;;;4977785;28;20391;-60
2022/08/28 11:36:00;;;;;;;4.47;2.05;;;28.80;73.20;;;;;;4977819;28;20033;-60
2022/08/28 11:38:33;;;;;;;3.63;2.10;;;28.80;73.20;;;;;;5010169;28;20026;-60
2022/08/28 11:41:12;;;;;;;3.78;2.28;;;28.80;73.20;;;;;;4978484;28;20518;-60
2022/08/28 11:43:42;;;;;;;7.00;2.05;;;28.80;73.20;;;;;;4993365;28;20372;-61
2022/08/28 11:46:15;;;;;;;3.05;2.22;;;28.80;73.20;;;;;;4977916;28;20092;-60
2022/08/28 11:48:48;;;;;;;2.00;1.80;;;28.80;73.20;;;;;;4993899;28;20018;-60
2022/08/28 11:51:17;;;;;;;3.80;2.30;;;28.80;73.20;;;;;;5009617;28;20037;-60
2022/08/28 11:53:49;;;;;;;2.42;2.13;;;28.80;73.20;;;;;;4977541;28;20022;-60
2022/08/28 11:56:21;;;;;;;2.67;2.38;;;28.80;73.20;;;;;;4977834;28;20080;-61
2022/08/28 11:58:55;;;;;;;2.78;2.10;;;28.80;73.20;;;;;;4977954;28;20029;-60
2022/08/28 12:01:28;;;;;;;2.55;2.20;;;28.80;73.20;;;;;;4978346;28;20096;-60
2022/08/28 12:03:59;;;;;;;2.97;2.13;;;28.80;73.10;;;;;;4996365;28;20077;-61
2022/08/28 12:06:31;;;;;;;3.72;2.20;;;28.80;73.10;;;;;;5013837;28;20018;-60
2022/08/28 12:08:57;;;;;;;2.72;2.08;;;28.80;73.10;;;;;;4979347;28;20391;-61
2022/08/28 12:11:29;;;;;;;4.47;2.58;;;28.80;73.10;;;;;;4991917;28;20475;-58
2022/08/28 12:13:56;;;;;;;3.22;2.22;;;28.80;73.40;;;;;;4977540;28;20077;-57
2022/08/28 12:16:22;;;;;;;3.47;2.30;;;28.80;73.50;;;;;;5010349;28;20030;-57
2022/08/28 12:18:48;;;;;;;2.17;1.90;;;28.80;73.50;;;;;;4993961;28;20124;-57
2022/08/28 12:21:20;;;;;;;4.85;2.50;;;28.80;73.40;;;;;;4977429;28;20027;-58
2022/08/28 12:23:52;;;;;;;4.03;2.58;;;28.90;73.30;;;;;;4977864;28;20026;-62
2022/08/28 12:26:22;;;;;;;4.10;2.25;;;28.90;73.30;;;;;;4978163;28;20019;-57
2022/08/28 12:28:53;;;;;;;4.25;2.38;;;28.90;73.20;;;;;;4977685;28;20022;-57
2022/08/28 12:32:09;;;;;;;6.30;2.47;;;28.90;73.10;;;;;;4994242;28;20542;-57
2022/08/28 12:34:16;;;;;;;4.28;2.90;;;28.90;73.00;;;;;;4980291;28;20057;-55
2022/08/28 12:36:42;;;;;;;3.15;2.55;;;28.90;73.00;;;;;;4993847;28;20022;-60
2022/08/28 12:39:17;;;;;;;4.13;2.90;;;28.90;73.00;;;;;;4976896;28;20053;-61
2022/08/28 12:41:43;;;;;;;2.92;2.50;;;29.00;73.00;;;;;;4993901;28;20081;-57
2022/08/28 12:44:11;;;;;;;5.20;2.85;;;29.00;73.10;;;;;;4995701;28;20034;-58
2022/08/28 12:46:42;;;;;;;3.83;2.45;;;29.00;73.10;;;;;;4996492;28;20030;-60
2022/08/28 12:49:13;;;;;;;3.72;2.60;;;29.00;73.10;;;;;;4996687;28;20022;-57
2022/08/28 12:51:39;;;;;;;4.57;2.90;;;29.00;73.10;;;;;;4996530;28;20026;-57
2022/08/28 12:54:07;;;;;;;3.33;2.70;;;29.00;73.00;;;;;;4996234;28;20042;-57
2022/08/28 12:56:36;;;;;;;4.57;2.85;;;29.00;73.00;;;;;;4996450;28;20434;-58
2022/08/28 12:59:08;;;;;;;4.00;2.58;;;29.00;73.10;;;;;;4996075;28;20041;-57
2022/08/28 13:01:34;;;;;;;3.30;2.78;;;29.10;73.00;;;;;;4996435;28;20052;-58
2022/08/28 13:04:04;;;;;;;3.15;2.80;;;29.10;73.00;;;;;;4979277;28;20042;-57
2022/08/28 13:06:33;;;;;;;3.40;2.85;;;29.10;73.00;;;;;;5012647;28;20022;-57
2022/08/28 13:09:03;;;;;;;3.08;2.72;;;29.10;72.90;;;;;;5012646;28;20380;-57
2022/08/28 13:11:33;;;;;;;4.72;3.30;;;29.10;72.90;;;;;;4996228;28;20030;-57
2022/08/28 13:14:00;;;;;;;4.05;2.58;;;29.10;72.80;;;;;;4995308;28;20112;-57
2022/08/28 13:16:32;;;;;;;3.25;2.95;;;29.10;72.80;;;;;;4996275;28;20447;-56